createdAt,value
2022-09-04T00:00:20.617Z,0
2022-09-04T00:05:22.075Z,0.88715
2022-09-04T00:10:23.653Z,0.88715
2022-09-04T00:15:25.746Z,0.88715
2022-09-04T00:20:27.172Z,0
2022-09-04T00:25:28.589Z,0.88715
2022-09-04T00:30:30.085Z,0.88715
2022-09-04T00:35:31.659Z,0
2022-09-04T00:40:33.242Z,0
2022-09-04T00:45:35.038Z,0
2022-09-04T00:50:36.577Z,0.88715
2022-09-04T00:55:38.370Z,0.88715
2022-09-04T01:00:40.297Z,0.88715
2022-09-04T01:05:42.168Z,0
2022-09-04T01:10:45.029Z,0
2022-09-04T01:15:46.733Z,0.88715
2022-09-04T01:20:48.152Z,0.88715
2022-09-04T01:25:49.600Z,0.88715
2022-09-04T01:30:51.115Z,0.88715
2022-09-04T01:35:52.644Z,0
2022-09-04T01:40:54.309Z,0.88715
2022-09-04T01:45:56.103Z,0
2022-09-04T01:50:57.598Z,0
2022-09-04T01:55:59.128Z,0.88715
2022-09-04T02:01:00.971Z,0.88715
2022-09-04T02:06:04.194Z,0
2022-09-04T02:11:05.982Z,0
2022-09-04T02:16:08.008Z,0
2022-09-04T02:21:09.809Z,0
2022-09-04T02:26:11.602Z,0.88715
2022-09-04T02:31:13.670Z,0.88715
2022-09-04T02:36:15.660Z,0
2022-09-04T02:41:17.395Z,0
2022-09-04T02:46:19.499Z,0
2022-09-04T02:51:21.319Z,0
2022-09-04T02:56:23.093Z,0
2022-09-04T03:01:24.919Z,0.88715
2022-09-04T03:06:27.087Z,0
2022-09-04T03:11:28.949Z,0
2022-09-04T03:16:31.290Z,0
2022-09-04T03:21:33.136Z,0.88715
2022-09-04T03:26:35.091Z,0.88715
2022-09-04T03:31:37.107Z,0
2022-09-04T03:36:39.029Z,0.88715
2022-09-04T03:41:41.094Z,0.88715
2022-09-04T03:46:43.467Z,0.88715
2022-09-04T03:51:44.994Z,0.88715
2022-09-04T03:56:46.735Z,1.16185
2022-09-04T04:01:48.446Z,2.50815
2022-09-04T04:06:50.006Z,1.83695
2022-09-04T04:11:51.682Z,3.67395
2022-09-04T04:16:56.151Z,14.25595
2022-09-04T04:21:58.214Z,25.63485
2022-09-04T04:27:00.000Z,35.9812
2022-09-04T04:32:01.848Z,58.3701
2022-09-04T04:37:03.497Z,81.1279
2022-09-04T04:42:05.408Z,111.4653
2022-09-04T04:47:07.484Z,138.68605
2022-09-04T04:52:09.274Z,167.67715
2022-09-04T04:57:11.266Z,196.66825
2022-09-04T05:02:13.283Z,234.82485
2022-09-04T05:07:15.178Z,263.2626
2022-09-04T05:12:17.035Z,286.81335
2022-09-04T05:17:19.113Z,319.5296
2022-09-04T05:22:20.903Z,346.9348
2022-09-04T05:27:22.764Z,366.2622
2022-09-04T05:32:24.731Z,394.1466
2022-09-04T05:37:26.547Z,421.36735
2022-09-04T05:42:28.637Z,450.8015
2022-09-04T05:47:30.930Z,486.37765
2022-09-04T05:52:32.732Z,514.7431
2022-09-04T05:57:34.500Z,553.8048
2022-09-04T06:02:36.298Z,609.79605
2022-09-04T06:07:38.308Z,645.9617
2022-09-04T06:12:40.053Z,678.4022
2022-09-04T06:17:42.255Z,717.13115
2022-09-04T06:22:44.154Z,730.558
2022-09-04T06:27:50.386Z,759.14405
2022-09-04T06:32:51.917Z,772.75535
2022-09-04T06:37:53.576Z,798.96255
2022-09-04T06:42:55.254Z,825.3542
2022-09-04T06:47:56.891Z,852.35435
2022-09-04T06:53:01.080Z,867.68085
2022-09-04T06:58:05.620Z,877.75145
2022-09-04T07:03:07.210Z,907.25975
2022-09-04T07:08:08.675Z,924.8548
2022-09-04T07:13:10.588Z,965.5024
2022-09-04T07:18:12.462Z,976.9193
2022-09-04T07:23:13.865Z,1013.10395
2022-09-04T07:28:15.294Z,1028.32015
2022-09-04T07:33:16.957Z,1061.5726
2022-09-04T07:38:18.483Z,1076.5492
2022-09-04T07:43:20.279Z,1105.0991
2022-09-04T07:48:22.464Z,1126.8072
2022-09-04T07:53:23.947Z,1171.30925
2022-09-04T07:58:25.783Z,1195.6548
2022-09-04T08:03:27.528Z,1213.13955
2022-09-04T08:08:29.208Z,1250.081
2022-09-04T08:13:31.064Z,1279.1101
2022-09-04T08:18:32.684Z,1302.71785
2022-09-04T08:23:34.410Z,1343.49475
2022-09-04T08:28:35.855Z,1380.1776
2022-09-04T08:33:37.557Z,1397.29345
2022-09-04T08:38:39.001Z,1433.4781
2022-09-04T08:43:40.427Z,1462.34175
2022-09-04T08:53:52.629Z,1536.1315
2022-09-04T08:58:55.403Z,1568.3324
2022-09-04T09:03:57.481Z,1605.01525
2022-09-04T09:08:59.407Z,1612.0795
2022-09-04T09:14:01.961Z,1662.6304
2022-09-04T09:19:04.033Z,1683.8213
2022-09-04T09:24:05.892Z,1724.52405
2022-09-04T09:29:07.631Z,1709.1804
2022-09-04T09:34:10.327Z,1822.69365
2022-09-04T09:39:12.333Z,1796.359
2022-09-04T09:44:14.199Z,1912.1218
2022-09-04T09:49:15.944Z,1947.19975
2022-09-04T09:54:17.985Z,1993.7859
2022-09-04T09:59:19.543Z,2037.42085
2022-09-04T10:04:21.426Z,2089.92655
2022-09-04T10:09:22.866Z,2156.3003
2022-09-04T10:14:25.345Z,2208.3268
2022-09-04T10:19:27.289Z,2203.60525
2022-09-04T10:24:29.245Z,2273.59385
2022-09-04T10:29:31.016Z,2290.09935
2022-09-04T10:34:32.863Z,2338.7506
2022-09-04T10:39:34.863Z,2383.49225
2022-09-04T10:44:36.779Z,2443.1345
2022-09-04T10:49:38.763Z,2481.1808
2022-09-04T10:54:41.016Z,2545.6359
2022-09-04T10:59:45.576Z,2586.19035
2022-09-04T11:04:47.146Z,2645.73945
2022-09-04T11:09:48.738Z,2666.87335
2022-09-04T11:14:50.306Z,2674.19435
2022-09-04T11:19:51.740Z,2705.1764
2022-09-04T11:24:53.549Z,2705.67275
2022-09-04T11:29:55.391Z,2725.5915
2022-09-04T11:34:56.842Z,2718.87715
2022-09-04T11:39:58.613Z,2720.1493
2022-09-04T11:45:00.256Z,2751.814
2022-09-04T11:50:01.746Z,2698.6808
2022-09-04T11:55:03.426Z,2728.1321
2022-09-04T12:00:05.265Z,2684.6626
2022-09-04T12:05:06.948Z,2702.29195
2022-09-04T12:10:08.639Z,2709.4095
2022-09-04T12:15:10.502Z,2718.9249
2022-09-04T12:20:12.148Z,2718.8679
2022-09-04T12:25:15.942Z,2716.4872
2022-09-04T12:30:17.614Z,2734.74405
2022-09-04T12:35:19.274Z,2704.23935
2022-09-04T12:40:20.981Z,2698.31795
2022-09-04T12:45:22.871Z,2679.5059
2022-09-04T12:50:24.569Z,2681.0348
2022-09-04T12:55:26.445Z,2616.7813
2022-09-04T13:00:42.026Z,2604.07325
2022-09-04T13:05:53.388Z,2571.0604
2022-09-04T13:10:55.948Z,2554.33245
2022-09-04T13:15:57.843Z,2457.78675
2022-09-04T13:20:59.702Z,2405.39135
2022-09-04T13:26:01.578Z,2338.0212
2022-09-04T13:31:03.077Z,2304.9722
2022-09-04T13:36:04.803Z,2199.55575
2022-09-04T13:41:06.442Z,2129.30855
2022-09-04T13:46:08.150Z,2058.8769
2022-09-04T13:51:13.614Z,1959.08525
2022-09-04T13:56:16.277Z,1878.21595
2022-09-04T14:01:18.075Z,1806.01395
2022-09-04T14:06:20.163Z,1710.46465
2022-09-04T14:11:21.946Z,1659.06565
2022-09-04T14:16:23.803Z,1588.3944
2022-09-04T14:21:25.595Z,1490.3921
2022-09-04T14:26:27.714Z,1405.05985
2022-09-04T14:31:32.665Z,1315.37495
2022-09-04T14:36:35.746Z,1194.37525
2022-09-04T14:41:37.551Z,1097.2952
2022-09-04T14:46:39.364Z,971.20505
2022-09-04T14:51:41.375Z,871.11865
2022-09-04T14:56:43.352Z,759.04485
2022-09-04T15:01:45.338Z,618.95735
2022-09-04T15:07:07.759Z,488.51455
2022-09-04T15:12:24.191Z,365.04285
2022-09-04T15:17:26.611Z,292.96835
2022-09-04T15:22:28.489Z,235.31075
2022-09-04T15:27:30.409Z,182.92715
2022-09-04T15:32:32.193Z,129.8919
2022-09-04T15:37:33.637Z,83.5656
2022-09-04T15:42:35.074Z,75.1722
2022-09-04T15:47:36.522Z,58.44425
2022-09-04T15:52:37.937Z,37.6964
2022-09-04T15:57:39.833Z,19.40155
2022-09-04T16:02:41.304Z,7.8382
2022-09-04T16:07:43.373Z,3.79245
2022-09-04T16:12:44.810Z,1.83695
2022-09-04T16:17:46.588Z,2.3237
2022-09-04T16:22:48.258Z,0
2022-09-04T16:27:50.160Z,0.88715
2022-09-04T16:32:51.691Z,0.88715
2022-09-04T16:37:53.426Z,0.88715
2022-09-04T16:42:55.315Z,0.88715
2022-09-04T16:47:57.183Z,0.88715
2022-09-04T16:53:13.376Z,0
2022-09-04T16:58:16.260Z,0
2022-09-04T17:03:18.049Z,0.88715
2022-09-04T17:08:22.877Z,0
2022-09-04T17:13:27.677Z,0
2022-09-04T17:18:29.976Z,0
2022-09-04T17:28:57.900Z,0.88715
2022-09-04T17:40:42.841Z,0
2022-09-04T17:46:02.590Z,0
2022-09-04T17:51:04.318Z,0
2022-09-04T17:56:06.722Z,0.88715
2022-09-04T18:01:15.376Z,0.88715
2022-09-04T18:06:18.059Z,0.88715
2022-09-04T18:11:20.019Z,0.88715
2022-09-04T18:16:21.572Z,0
2022-09-04T18:21:23.411Z,0
2022-09-04T18:26:24.950Z,0
2022-09-04T18:37:07.811Z,0.88715
2022-09-04T18:50:05.024Z,0
2022-09-04T18:55:43.400Z,0.88715
2022-09-04T19:00:45.414Z,0.88715
2022-09-04T19:05:47.420Z,0.88715
2022-09-04T19:10:49.159Z,0.88715
2022-09-04T19:15:50.809Z,0.88715
2022-09-04T19:20:52.260Z,0
2022-09-04T19:25:55.112Z,0.88715
2022-09-04T19:30:56.865Z,0
2022-09-04T19:35:58.295Z,0
2022-09-04T19:46:19.375Z,0.88715
2022-09-04T19:53:30.487Z,0
2022-09-04T19:58:42.046Z,0
2022-09-04T20:03:46.266Z,0.88715
2022-09-04T20:08:48.248Z,0.88715
2022-09-04T20:13:53.197Z,0
2022-09-04T20:18:54.700Z,0.88715
2022-09-04T20:23:56.609Z,0
2022-09-04T20:28:58.019Z,0.88715
2022-09-04T20:33:59.665Z,0
2022-09-04T20:39:01.413Z,0
2022-09-04T20:44:03.161Z,0
2022-09-04T20:52:48.682Z,0
2022-09-04T21:00:51.575Z,0.88715
2022-09-04T21:08:17.726Z,0.88715
2022-09-04T21:13:19.623Z,0.88715
2022-09-04T21:18:21.380Z,0
2022-09-04T21:23:23.237Z,0
2022-09-04T21:28:25.383Z,0
2022-09-04T21:33:29.942Z,0.88715
2022-09-04T21:38:33.263Z,0.88715
2022-09-04T21:43:35.675Z,0
2022-09-04T21:48:38.110Z,0
2022-09-04T21:53:43.110Z,0
2022-09-04T22:02:44.809Z,0.88715
2022-09-04T22:13:24.663Z,0
2022-09-04T22:18:38.824Z,0
2022-09-04T22:23:40.570Z,0.88715
2022-09-04T22:28:42.482Z,0.88715
2022-09-04T22:33:48.246Z,0
2022-09-04T22:39:18.684Z,0.88715
2022-09-04T22:44:20.143Z,0
2022-09-04T22:49:21.962Z,0
2022-09-04T22:54:23.818Z,0
2022-09-04T22:59:26.854Z,0.88715
2022-09-04T23:04:29.362Z,0
2022-09-04T23:13:47.437Z,0.88715
2022-09-04T23:23:22.611Z,0
2022-09-04T23:31:42.068Z,0
2022-09-04T23:36:44.228Z,0.88715
2022-09-04T23:41:52.820Z,0.88715
2022-09-04T23:46:55.011Z,0
2022-09-04T23:51:56.474Z,0
2022-09-04T23:56:58.617Z,0
